createdAt,value
2018-04-06T00:00:51.212Z,5.40
2018-04-06T00:01:54.537Z,5.45
2018-04-06T00:02:57.920Z,4.68
2018-04-06T00:04:01.235Z,5.35
2018-04-06T00:05:05.382Z,6.82
2018-04-06T00:06:08.696Z,5.57
2018-04-06T00:07:12.106Z,5.05
2018-04-06T00:08:15.485Z,6.10
2018-04-06T00:09:18.974Z,5.68
2018-04-06T00:10:22.390Z,4.90
2018-04-06T00:11:25.839Z,5.25
2018-04-06T00:12:29.216Z,5.70
2018-04-06T00:13:32.540Z,5.62
2018-04-06T00:14:35.858Z,6.55
2018-04-06T00:15:39.199Z,5.35
2018-04-06T00:16:42.521Z,5.28
2018-04-06T00:17:51.506Z,7.12
2018-04-06T00:18:55.760Z,5.47
2018-04-06T00:19:59.245Z,5.40
2018-04-06T00:21:02.552Z,5.25
2018-04-06T00:22:05.876Z,5.30
2018-04-06T00:23:09.221Z,8.52
2018-04-06T00:24:12.589Z,6.60
2018-04-06T00:25:15.917Z,8.30
2018-04-06T00:26:20.165Z,6.28
2018-04-06T00:27:23.663Z,6.05
2018-04-06T00:28:27.004Z,5.90
2018-04-06T00:29:30.382Z,5.40
2018-04-06T00:30:33.733Z,5.55
2018-04-06T00:31:37.077Z,5.78
2018-04-06T00:32:41.051Z,5.70
2018-04-06T00:33:44.972Z,5.75
2018-04-06T00:34:48.340Z,6.07
2018-04-06T00:35:51.656Z,8.80
2018-04-06T00:36:55.144Z,5.75
2018-04-06T00:37:58.465Z,6.25
2018-04-06T00:39:01.846Z,5.70
2018-04-06T00:40:05.200Z,6.40
2018-04-06T00:41:08.549Z,5.35
2018-04-06T00:42:11.873Z,5.87
2018-04-06T00:43:15.221Z,5.47
2018-04-06T00:44:18.704Z,4.87
2018-04-06T00:45:22.130Z,5.50
2018-04-06T00:46:25.503Z,6.47
2018-04-06T00:47:28.951Z,5.72
2018-04-06T00:48:32.311Z,5.70
2018-04-06T00:49:35.667Z,5.68
2018-04-06T00:50:39.015Z,6.07
2018-04-06T00:51:42.358Z,6.32
2018-04-06T00:52:45.748Z,5.85
2018-04-06T00:53:49.125Z,5.22
2018-04-06T00:54:52.518Z,5.32
2018-04-06T00:55:55.856Z,6.20
2018-04-06T00:56:59.209Z,7.07
2018-04-06T00:58:02.908Z,6.10
2018-04-06T00:59:06.215Z,6.95
2018-04-06T01:00:09.657Z,6.25
2018-04-06T01:01:13.283Z,6.53
2018-04-06T01:02:16.605Z,5.35
2018-04-06T01:03:20.005Z,5.45
2018-04-06T01:04:23.357Z,6.40
2018-04-06T01:05:26.782Z,6.18
2018-04-06T01:06:30.124Z,7.05
2018-04-06T01:07:33.626Z,6.32
2018-04-06T01:08:37.271Z,6.30
2018-04-06T01:09:40.594Z,6.12
2018-04-06T01:10:44.006Z,5.80
2018-04-06T01:11:47.368Z,7.07
2018-04-06T01:12:50.676Z,7.78
2018-04-06T01:13:54.004Z,6.37
2018-04-06T01:14:57.345Z,6.07
2018-04-06T01:16:00.776Z,7.20
2018-04-06T01:17:04.195Z,6.03
2018-04-06T01:18:08.499Z,6.22
2018-04-06T01:19:11.820Z,5.37
2018-04-06T01:20:15.206Z,6.03
2018-04-06T01:21:18.592Z,6.00
2018-04-06T01:22:21.900Z,6.45
2018-04-06T01:23:25.273Z,5.57
2018-04-06T01:24:28.889Z,6.12
2018-04-06T01:25:32.289Z,5.65
2018-04-06T01:26:35.617Z,6.22
2018-04-06T01:27:39.018Z,5.85
2018-04-06T01:28:42.466Z,6.50
2018-04-06T01:29:45.762Z,6.40
2018-04-06T01:30:49.102Z,6.75
2018-04-06T01:31:52.427Z,6.00
2018-04-06T01:32:55.801Z,6.75
2018-04-06T01:33:59.114Z,5.15
2018-04-06T01:35:02.586Z,7.57
2018-04-06T01:36:05.880Z,5.50
2018-04-06T01:37:09.260Z,6.50
2018-04-06T01:38:12.639Z,5.93
2018-04-06T01:39:15.909Z,6.00
2018-04-06T01:40:19.274Z,5.93
2018-04-06T01:41:22.614Z,6.70
2018-04-06T01:42:25.944Z,6.72
2018-04-06T01:43:29.269Z,7.20
2018-04-06T01:44:32.619Z,7.07
2018-04-06T01:45:36.024Z,6.70
2018-04-06T01:46:39.344Z,6.62
2018-04-06T01:47:42.668Z,6.32
2018-04-06T01:48:46.048Z,7.05
2018-04-06T01:49:49.532Z,6.43
2018-04-06T01:50:52.856Z,5.95
2018-04-06T01:51:56.223Z,6.30
2018-04-06T01:52:59.643Z,6.00
2018-04-06T01:54:02.937Z,6.80
2018-04-06T01:55:06.259Z,6.87
2018-04-06T01:56:09.609Z,6.20
2018-04-06T01:57:12.973Z,6.80
2018-04-06T01:58:16.415Z,6.12
2018-04-06T01:59:19.734Z,6.12
2018-04-06T02:00:23.096Z,6.30
2018-04-06T02:01:26.504Z,6.05
2018-04-06T02:02:29.792Z,6.43
2018-04-06T02:03:33.154Z,6.15
2018-04-06T02:04:36.607Z,5.95
2018-04-06T02:05:39.949Z,5.57
2018-04-06T02:06:43.316Z,5.87
2018-04-06T02:07:46.642Z,6.28
2018-04-06T02:08:49.985Z,6.28
2018-04-06T02:09:53.302Z,6.72
2018-04-06T02:10:56.616Z,5.93
2018-04-06T02:12:00.027Z,6.32
2018-04-06T02:13:03.947Z,5.37
2018-04-06T02:14:07.336Z,6.47
2018-04-06T02:15:10.669Z,6.80
2018-04-06T02:16:13.990Z,5.22
2018-04-06T02:17:17.296Z,5.90
2018-04-06T02:18:20.625Z,5.30
2018-04-06T02:19:23.994Z,5.28
2018-04-06T02:20:27.304Z,5.30
2018-04-06T02:21:30.649Z,6.47
2018-04-06T02:22:33.998Z,5.47
2018-04-06T02:23:37.392Z,6.18
2018-04-06T02:24:40.871Z,6.30
2018-04-06T02:25:44.166Z,6.05
2018-04-06T02:26:47.540Z,5.55
2018-04-06T02:27:50.898Z,6.78
2018-04-06T02:28:54.360Z,6.40
2018-04-06T02:29:57.730Z,6.72
2018-04-06T02:31:01.032Z,6.85
2018-04-06T02:32:04.456Z,7.90
2018-04-06T02:33:07.761Z,8.45
2018-04-06T02:34:11.212Z,8.50
2018-04-06T02:35:14.548Z,6.47
2018-04-06T02:36:17.912Z,6.50
2018-04-06T02:37:21.224Z,7.50
2018-04-06T02:38:24.552Z,6.18
2018-04-06T02:39:27.880Z,6.80
2018-04-06T02:40:31.228Z,8.27
2018-04-06T02:41:34.608Z,7.10
2018-04-06T02:42:37.984Z,6.30
2018-04-06T02:43:41.354Z,6.90
2018-04-06T02:44:44.666Z,6.82
2018-04-06T02:45:48.094Z,7.72
2018-04-06T02:46:51.445Z,7.50
2018-04-06T02:47:54.751Z,6.50
2018-04-06T02:48:58.131Z,7.32
2018-04-06T02:50:01.453Z,7.12
2018-04-06T02:51:04.885Z,6.22
2018-04-06T02:52:08.231Z,6.93
2018-04-06T02:53:11.580Z,7.15
2018-04-06T02:54:14.924Z,6.85
2018-04-06T02:55:18.262Z,6.15
2018-04-06T02:56:21.605Z,6.93
2018-04-06T02:57:24.921Z,7.40
2018-04-06T02:58:28.562Z,8.93
2018-04-06T02:59:31.937Z,7.37
2018-04-06T03:00:35.252Z,7.05
2018-04-06T03:01:38.672Z,6.18
2018-04-06T03:02:42.001Z,7.12
2018-04-06T03:03:45.383Z,7.25
2018-04-06T03:04:48.762Z,7.15
2018-04-06T03:05:52.074Z,7.00
2018-04-06T03:06:55.428Z,6.75
2018-04-06T03:07:58.767Z,6.10
2018-04-06T03:09:02.066Z,5.70
2018-04-06T03:10:05.385Z,6.65
2018-04-06T03:11:08.741Z,7.03
2018-04-06T03:12:12.127Z,6.93
2018-04-06T03:13:15.523Z,5.95
2018-04-06T03:14:18.982Z,6.75
2018-04-06T03:15:22.380Z,6.55
2018-04-06T03:16:25.692Z,6.87
2018-04-06T03:17:29.020Z,6.28
2018-04-06T03:18:32.353Z,6.95
2018-04-06T03:19:35.699Z,5.87
2018-04-06T03:20:39.064Z,6.35
2018-04-06T03:21:42.421Z,5.78
2018-04-06T03:22:45.752Z,5.82
2018-04-06T03:23:49.072Z,6.37
2018-04-06T03:24:52.729Z,6.00
2018-04-06T03:25:56.160Z,6.53
2018-04-06T03:26:59.477Z,6.95
2018-04-06T03:28:02.843Z,5.82
2018-04-06T03:29:06.288Z,6.18
2018-04-06T03:30:09.636Z,6.97
2018-04-06T03:31:12.991Z,6.05
2018-04-06T03:32:16.319Z,6.25
2018-04-06T03:33:19.687Z,6.22
2018-04-06T03:34:23.005Z,5.85
2018-04-06T03:35:26.941Z,6.20
2018-04-06T03:36:30.272Z,6.70
2018-04-06T03:37:33.714Z,6.32
2018-04-06T03:38:37.017Z,6.53
2018-04-06T03:39:40.494Z,6.47
2018-04-06T03:40:43.826Z,7.78
2018-04-06T03:41:47.157Z,5.57
2018-04-06T03:42:50.507Z,6.22
2018-04-06T03:43:53.825Z,6.43
2018-04-06T03:44:57.186Z,6.60
2018-04-06T03:46:00.492Z,6.00
2018-04-06T03:47:03.817Z,6.70
2018-04-06T03:48:07.235Z,6.40
2018-04-06T03:49:10.581Z,5.80
2018-04-06T03:50:13.976Z,6.18
2018-04-06T03:51:17.300Z,6.87
2018-04-06T03:52:20.705Z,7.37
2018-04-06T03:53:24.038Z,5.75
2018-04-06T03:54:27.452Z,6.53
2018-04-06T03:55:30.818Z,7.37
2018-04-06T03:56:34.125Z,6.50
2018-04-06T03:57:37.448Z,6.82
2018-04-06T03:58:40.747Z,6.62
2018-04-06T03:59:44.081Z,6.57
2018-04-06T04:00:47.420Z,6.50
2018-04-06T04:01:50.773Z,7.18
2018-04-06T04:02:54.086Z,7.70
2018-04-06T04:03:57.412Z,6.12
2018-04-06T04:05:00.877Z,6.55
2018-04-06T04:06:04.261Z,5.93
2018-04-06T04:07:07.581Z,6.95
2018-04-06T04:08:10.906Z,5.80
2018-04-06T04:09:13.544Z,6.45
2018-04-06T04:10:16.665Z,7.37
2018-04-06T04:11:20.033Z,5.70
2018-04-06T04:12:23.456Z,6.93
2018-04-06T04:13:26.758Z,7.10
2018-04-06T04:14:30.091Z,7.07
2018-04-06T04:15:33.593Z,6.93
2018-04-06T04:16:36.965Z,5.50
2018-04-06T04:17:40.268Z,6.75
2018-04-06T04:18:43.720Z,7.37
2018-04-06T04:19:47.043Z,9.15
2018-04-06T04:20:50.548Z,7.00
2018-04-06T04:21:53.849Z,8.45
2018-04-06T04:22:57.192Z,9.63
2018-04-06T04:24:00.538Z,7.20
2018-04-06T04:25:04.068Z,7.28
2018-04-06T04:26:07.473Z,6.90
2018-04-06T04:27:10.793Z,7.35
2018-04-06T04:28:14.126Z,7.68
2018-04-06T04:29:17.444Z,7.25
2018-04-06T04:30:20.757Z,7.55
2018-04-06T04:31:24.098Z,7.10
2018-04-06T04:32:27.403Z,7.30
2018-04-06T04:33:30.747Z,6.47
2018-04-06T04:34:34.107Z,9.05
2018-04-06T04:35:37.433Z,8.00
2018-04-06T04:36:40.909Z,8.88
2018-04-06T04:37:44.230Z,8.73
2018-04-06T04:38:47.641Z,7.70
2018-04-06T04:39:51.021Z,7.93
2018-04-06T04:40:54.360Z,6.90
2018-04-06T04:41:57.742Z,8.18
2018-04-06T04:43:01.070Z,7.93
2018-04-06T04:44:04.411Z,8.32
2018-04-06T04:45:09.402Z,8.27
2018-04-06T04:46:12.749Z,9.05
2018-04-06T04:47:16.141Z,7.93
2018-04-06T04:48:19.485Z,8.57
2018-04-06T04:49:22.793Z,8.63
2018-04-06T04:50:26.170Z,9.68
2018-04-06T04:51:29.538Z,8.18
2018-04-06T04:52:32.900Z,9.50
2018-04-06T04:53:36.224Z,8.32
2018-04-06T04:54:39.576Z,9.15
2018-04-06T04:55:42.964Z,7.45
2018-04-06T04:56:46.307Z,8.57
2018-04-06T04:57:49.717Z,8.43
2018-04-06T04:58:53.031Z,8.20
2018-04-06T04:59:56.392Z,8.02
2018-04-06T05:00:59.748Z,8.20
2018-04-06T05:02:03.173Z,8.63
2018-04-06T05:03:07.339Z,9.88
2018-04-06T05:04:10.689Z,8.25
2018-04-06T05:05:14.958Z,9.57
2018-04-06T05:06:18.243Z,9.38
2018-04-06T05:07:21.560Z,8.82
2018-04-06T05:08:24.982Z,8.63
2018-04-06T05:09:28.335Z,9.70
2018-04-06T05:10:32.096Z,9.10
2018-04-06T05:11:35.443Z,9.20
2018-04-06T05:12:38.754Z,10.15
2018-04-06T05:13:42.131Z,8.75
2018-04-06T05:14:45.493Z,9.00
2018-04-06T05:15:48.882Z,10.55
2018-04-06T05:16:52.347Z,9.82
2018-04-06T05:17:55.704Z,9.35
2018-04-06T05:18:59.092Z,9.00
2018-04-06T05:20:02.484Z,12.63
2018-04-06T05:21:05.845Z,9.38
2018-04-06T05:22:09.226Z,10.43
2018-04-06T05:23:12.553Z,12.80
2018-04-06T05:24:16.267Z,10.45
2018-04-06T05:25:19.964Z,11.32
2018-04-06T05:26:23.344Z,10.77
2018-04-06T05:27:26.682Z,10.73
2018-04-06T05:28:29.993Z,12.20
2018-04-06T05:29:33.369Z,11.20
2018-04-06T05:30:37.133Z,10.80
2018-04-06T05:31:40.465Z,9.73
2018-04-06T05:32:43.816Z,11.88
2018-04-06T05:33:47.172Z,10.35
2018-04-06T05:34:50.675Z,11.10
2018-04-06T05:35:54.439Z,11.55
2018-04-06T05:36:57.821Z,10.88
2018-04-06T05:38:01.165Z,10.45
2018-04-06T05:39:04.572Z,10.88
2018-04-06T05:40:08.014Z,10.77
2018-04-06T05:41:11.328Z,11.15
2018-04-06T05:42:14.775Z,10.40
2018-04-06T05:43:18.100Z,10.35
2018-04-06T05:44:21.409Z,11.82
2018-04-06T05:45:24.808Z,10.93
2018-04-06T05:46:28.150Z,10.10
2018-04-06T05:47:31.513Z,11.15
2018-04-06T05:48:34.891Z,10.77
2018-04-06T05:49:38.205Z,11.23
2018-04-06T05:50:41.573Z,10.15
2018-04-06T05:51:45.027Z,8.90
2018-04-06T05:52:48.448Z,9.88
2018-04-06T05:53:51.773Z,9.43
2018-04-06T05:54:55.702Z,10.50
2018-04-06T05:55:59.190Z,8.90
2018-04-06T05:57:02.606Z,10.60
2018-04-06T05:58:06.042Z,9.98
2018-04-06T05:59:09.373Z,7.85
2018-04-06T06:00:12.749Z,9.85
2018-04-06T06:01:16.185Z,10.20
2018-04-06T06:02:19.516Z,9.82
2018-04-06T06:03:22.906Z,10.48
2018-04-06T06:04:26.289Z,9.10
2018-04-06T06:05:29.898Z,9.82
2018-04-06T06:06:34.839Z,9.45
2018-04-06T06:07:41.594Z,10.15
2018-04-06T06:08:44.940Z,10.00
2018-04-06T06:09:48.325Z,8.85
2018-04-06T06:10:51.656Z,8.90
2018-04-06T06:11:55.713Z,9.38
2018-04-06T06:12:59.087Z,8.55
2018-04-06T06:14:02.472Z,10.18
2018-04-06T06:15:05.785Z,9.00
2018-04-06T06:16:09.236Z,9.10
2018-04-06T06:17:12.805Z,10.15
2018-04-06T06:18:16.111Z,10.00
2018-04-06T06:19:19.493Z,10.20
2018-04-06T06:20:22.921Z,9.05
2018-04-06T06:21:26.308Z,9.10
2018-04-06T06:22:29.709Z,10.25
2018-04-06T06:23:33.197Z,9.63
2018-04-06T06:24:36.584Z,10.27
2018-04-06T06:25:40.146Z,9.10
2018-04-06T06:26:45.080Z,8.90
2018-04-06T06:27:48.396Z,9.60
2018-04-06T06:28:51.843Z,8.65
2018-04-06T06:29:55.256Z,8.80
2018-04-06T06:30:58.652Z,8.82
2018-04-06T06:32:01.999Z,8.55
2018-04-06T06:33:05.330Z,9.75
2018-04-06T06:34:08.904Z,8.98
2018-04-06T06:35:13.040Z,9.88
2018-04-06T06:36:16.744Z,9.02
2018-04-06T06:37:20.084Z,9.27
2018-04-06T06:38:23.517Z,8.45
2018-04-06T06:39:26.840Z,8.50
2018-04-06T06:40:30.392Z,8.00
2018-04-06T06:41:33.752Z,8.35
2018-04-06T06:42:37.101Z,8.05
2018-04-06T06:43:40.619Z,7.00
2018-04-06T06:44:44.004Z,7.62
2018-04-06T06:45:47.372Z,8.40
2018-04-06T06:46:50.805Z,7.45
2018-04-06T06:47:55.313Z,8.52
2018-04-06T06:48:58.657Z,7.18
2018-04-06T06:50:02.206Z,9.50
2018-04-06T06:51:05.576Z,7.60
2018-04-06T06:52:08.983Z,7.78
2018-04-06T06:53:12.293Z,8.60
2018-04-06T06:54:15.690Z,8.30
2018-04-06T06:55:19.038Z,7.80
2018-04-06T06:56:22.729Z,8.30
2018-04-06T06:57:26.122Z,7.82
2018-04-06T06:58:29.509Z,8.63
2018-04-06T06:59:33.221Z,7.35
2018-04-06T07:00:36.679Z,7.60
2018-04-06T07:01:40.016Z,7.60
2018-04-06T07:02:43.409Z,6.75
2018-04-06T07:03:46.829Z,8.82
2018-04-06T07:04:50.268Z,7.60
2018-04-06T07:05:53.668Z,7.85
2018-04-06T07:06:57.075Z,8.85
2018-04-06T07:08:01.307Z,8.05
2018-04-06T07:09:05.498Z,8.05
2018-04-06T07:10:09.152Z,10.25
2018-04-06T07:11:12.584Z,7.43
2018-04-06T07:12:15.984Z,8.70
2018-04-06T07:13:19.378Z,7.95
2018-04-06T07:14:22.743Z,8.60
2018-04-06T07:15:26.135Z,8.88
2018-04-06T07:16:29.479Z,8.02
2018-04-06T07:17:32.862Z,8.10
2018-04-06T07:18:36.300Z,8.30
2018-04-06T07:19:39.640Z,7.78
2018-04-06T07:20:43.059Z,8.18
2018-04-06T07:21:46.480Z,8.00
2018-04-06T07:22:49.853Z,8.07
2018-04-06T07:23:53.218Z,7.90
2018-04-06T07:24:56.560Z,7.40
2018-04-06T07:25:59.992Z,7.60
2018-04-06T07:27:03.458Z,7.07
2018-04-06T07:28:06.840Z,9.07
2018-04-06T07:29:10.179Z,7.93
2018-04-06T07:30:13.649Z,7.80
2018-04-06T07:31:16.996Z,8.50
2018-04-06T07:32:20.377Z,9.40
2018-04-06T07:33:23.704Z,8.20
2018-04-06T07:34:27.114Z,9.40
2018-04-06T07:35:30.476Z,8.70
2018-04-06T07:36:33.908Z,8.68
2018-04-06T07:37:37.309Z,9.55
2018-04-06T07:38:40.637Z,8.07
2018-04-06T07:39:44.018Z,7.55
2018-04-06T07:40:47.390Z,8.20
2018-04-06T07:41:50.920Z,6.93
2018-04-06T07:42:54.548Z,7.65
2018-04-06T07:43:57.937Z,8.35
2018-04-06T07:45:01.593Z,7.82
2018-04-06T07:46:05.085Z,7.20
2018-04-06T07:47:08.456Z,6.78
2018-04-06T07:48:11.883Z,7.57
2018-04-06T07:49:15.215Z,8.25
2018-04-06T07:51:28.223Z,8.95
2018-04-06T07:52:31.596Z,8.63
2018-04-06T07:53:35.256Z,7.18
2018-04-06T07:54:38.701Z,7.50
2018-04-06T07:55:42.143Z,8.15
2018-04-06T07:56:45.591Z,7.57
2018-04-06T07:57:48.938Z,9.10
2018-04-06T07:58:52.329Z,6.80
2018-04-06T07:59:55.765Z,6.78
2018-04-06T08:00:59.101Z,7.43
2018-04-06T08:02:02.469Z,6.90
2018-04-06T08:03:05.813Z,7.28
2018-04-06T08:04:09.152Z,7.43
2018-04-06T08:05:12.541Z,7.78
2018-04-06T08:06:16.216Z,7.32
2018-04-06T08:07:19.643Z,8.15
2018-04-06T08:08:23.111Z,7.00
2018-04-06T08:09:26.461Z,8.13
2018-04-06T08:10:29.839Z,7.45
2018-04-06T08:11:33.253Z,7.25
2018-04-06T08:12:36.599Z,8.30
2018-04-06T08:13:39.781Z,7.18
2018-04-06T08:14:42.877Z,7.53
2018-04-06T08:15:46.773Z,7.62
2018-04-06T08:16:49.934Z,7.93
2018-04-06T08:17:53.114Z,7.00
2018-04-06T08:18:56.632Z,7.30
2018-04-06T08:19:59.680Z,6.80
2018-04-06T08:21:02.718Z,7.40
2018-04-06T08:22:05.799Z,7.47
2018-04-06T08:23:09.850Z,7.32
2018-04-06T08:24:12.930Z,6.60
2018-04-06T08:25:16.099Z,7.03
2018-04-06T08:26:19.397Z,6.70
2018-04-06T08:27:22.530Z,6.22
2018-04-06T08:28:25.578Z,7.82
2018-04-06T08:29:28.742Z,7.10
2018-04-06T08:30:32.006Z,6.55
2018-04-06T08:31:35.112Z,8.25
2018-04-06T08:32:38.193Z,7.20
2018-04-06T08:33:41.372Z,6.70
2018-04-06T08:34:44.433Z,7.05
2018-04-06T08:35:47.644Z,7.00
2018-04-06T08:36:50.701Z,7.72
2018-04-06T08:37:53.860Z,6.87
2018-04-06T08:38:56.926Z,6.87
2018-04-06T08:40:00.145Z,7.78
2018-04-06T08:41:03.272Z,7.15
2018-04-06T08:42:06.376Z,7.18
2018-04-06T08:43:09.494Z,7.43
2018-04-06T08:44:12.665Z,6.80
2018-04-06T08:45:15.756Z,7.15
2018-04-06T08:46:18.849Z,7.57
2018-04-06T08:47:21.900Z,7.68
2018-04-06T08:48:24.986Z,5.90
2018-04-06T08:49:28.074Z,6.85
2018-04-06T08:50:31.153Z,6.45
2018-04-06T08:51:34.267Z,7.32
2018-04-06T08:52:37.306Z,6.70
2018-04-06T08:53:40.450Z,6.80
2018-04-06T08:54:43.707Z,7.03
2018-04-06T08:55:46.780Z,6.05
2018-04-06T08:56:49.958Z,7.43
2018-04-06T08:57:53.048Z,6.95
2018-04-06T08:58:56.100Z,6.75
2018-04-06T08:59:59.290Z,6.50
2018-04-06T09:01:02.386Z,5.72
2018-04-06T09:02:05.447Z,5.32
2018-04-06T09:03:08.521Z,5.80
2018-04-06T09:04:11.657Z,6.78
2018-04-06T09:05:14.761Z,6.45
2018-04-06T09:06:18.008Z,5.50
2018-04-06T09:07:21.089Z,5.37
2018-04-06T09:08:24.122Z,6.10
2018-04-06T09:09:27.264Z,6.03
2018-04-06T09:10:30.295Z,5.75
2018-04-06T09:11:33.387Z,5.55
2018-04-06T09:12:36.476Z,6.15
2018-04-06T09:13:39.689Z,6.87
2018-04-06T09:14:42.766Z,4.80
2018-04-06T09:15:45.858Z,5.20
2018-04-06T09:16:49.045Z,5.12
2018-04-06T09:17:52.123Z,4.82
2018-04-06T09:18:55.208Z,4.18
2018-04-06T09:19:58.253Z,5.22
2018-04-06T09:21:01.303Z,5.15
2018-04-06T09:22:04.368Z,4.80
2018-04-06T09:23:07.468Z,5.05
2018-04-06T09:24:10.492Z,4.18
2018-04-06T09:25:13.620Z,4.72
2018-04-06T09:26:16.699Z,4.03
2018-04-06T09:27:19.903Z,3.55
2018-04-06T09:28:23.043Z,4.55
2018-04-06T09:29:26.142Z,4.40
2018-04-06T09:30:29.196Z,6.10
2018-04-06T09:31:32.897Z,4.57
2018-04-06T09:32:35.998Z,4.35
2018-04-06T09:33:39.078Z,3.92
2018-04-06T09:34:42.251Z,4.00
2018-04-06T09:35:45.313Z,4.50
2018-04-06T09:36:48.377Z,4.55
2018-04-06T09:37:51.482Z,4.35
2018-04-06T09:38:54.659Z,3.72
2018-04-06T09:39:57.789Z,4.03
2018-04-06T09:41:00.879Z,4.00
2018-04-06T09:42:04.102Z,4.80
2018-04-06T09:43:07.464Z,4.28
2018-04-06T09:44:11.705Z,4.05
2018-04-06T09:45:14.767Z,3.70
2018-04-06T09:46:17.983Z,4.20
2018-04-06T09:47:21.170Z,3.40
2018-04-06T09:48:24.272Z,3.40
2018-04-06T09:49:27.534Z,2.80
2018-04-06T09:50:30.779Z,3.47
2018-04-06T09:51:33.821Z,2.85
2018-04-06T09:52:36.925Z,2.90
2018-04-06T09:53:40.606Z,3.92
2018-04-06T09:54:43.862Z,3.70
2018-04-06T09:55:46.934Z,3.25
2018-04-06T09:56:49.998Z,3.90
2018-04-06T09:57:53.085Z,3.15
2018-04-06T09:58:56.640Z,2.83
2018-04-06T09:59:59.746Z,3.58
2018-04-06T10:01:03.099Z,2.83
2018-04-06T10:02:11.676Z,3.62
2018-04-06T10:03:16.813Z,3.28
2018-04-06T10:04:21.053Z,2.90
2018-04-06T10:05:24.116Z,3.12
2018-04-06T10:06:27.308Z,3.05
2018-04-06T10:07:30.419Z,3.30
2018-04-06T10:08:33.514Z,3.30
2018-04-06T10:09:36.675Z,3.50
2018-04-06T10:10:39.963Z,4.32
2018-04-06T10:11:43.013Z,3.20
2018-04-06T10:12:46.221Z,3.22
2018-04-06T10:13:49.410Z,2.92
2018-04-06T10:14:52.451Z,2.90
2018-04-06T10:15:55.686Z,3.10
2018-04-06T10:16:58.882Z,3.50
2018-04-06T10:18:01.967Z,3.20
2018-04-06T10:19:05.004Z,3.30
2018-04-06T10:20:08.087Z,2.87
2018-04-06T10:21:11.141Z,3.05
2018-04-06T10:22:14.283Z,3.65
2018-04-06T10:23:17.352Z,3.50
2018-04-06T10:24:21.188Z,3.12
2018-04-06T10:25:24.343Z,3.40
2018-04-06T10:26:27.405Z,3.20
2018-04-06T10:27:30.537Z,2.78
2018-04-06T10:28:33.739Z,3.08
2018-04-06T10:29:36.893Z,2.42
2018-04-06T10:30:41.186Z,3.58
2018-04-06T10:31:44.236Z,3.30
2018-04-06T10:32:47.413Z,3.05
2018-04-06T10:33:50.472Z,3.10
2018-04-06T10:34:53.517Z,3.10
2018-04-06T10:35:56.622Z,2.80
2018-04-06T10:37:00.132Z,2.55
2018-04-06T10:38:03.237Z,3.17
2018-04-06T10:39:06.280Z,3.55
2018-04-06T10:40:09.650Z,3.05
2018-04-06T10:41:12.934Z,8.30
2018-04-06T10:42:16.048Z,3.33
2018-04-06T10:43:19.153Z,3.25
2018-04-06T10:44:22.204Z,3.53
2018-04-06T10:45:25.413Z,2.90
2018-04-06T10:46:28.609Z,3.55
2018-04-06T10:47:31.811Z,2.65
2018-04-06T10:48:35.052Z,5.45
2018-04-06T10:49:38.137Z,3.50
2018-04-06T10:50:41.185Z,2.60
2018-04-06T10:51:44.338Z,2.75
2018-04-06T10:52:47.408Z,2.70
2018-04-06T10:53:50.467Z,3.15
2018-04-06T10:54:53.508Z,2.75
2018-04-06T10:55:56.653Z,3.00
2018-04-06T10:56:59.769Z,2.72
2018-04-06T10:58:02.839Z,2.67
2018-04-06T10:59:10.092Z,2.85
2018-04-06T11:00:13.169Z,2.90
2018-04-06T11:01:16.280Z,1.92
2018-04-06T11:02:19.374Z,2.53
2018-04-06T11:03:22.433Z,4.93
2018-04-06T11:04:25.611Z,2.42
2018-04-06T11:05:29.018Z,2.40
2018-04-06T11:06:32.628Z,2.55
2018-04-06T11:07:35.894Z,2.22
2018-04-06T11:08:39.003Z,1.92
2018-04-06T11:09:42.089Z,3.47
2018-04-06T11:10:45.153Z,2.45
2018-04-06T11:11:48.260Z,2.70
2018-04-06T11:12:51.325Z,1.85
2018-04-06T11:13:54.445Z,2.50
2018-04-06T11:14:57.482Z,2.15
2018-04-06T11:16:00.603Z,2.67
2018-04-06T11:17:03.620Z,2.33
2018-04-06T11:18:06.736Z,2.58
2018-04-06T11:19:09.778Z,2.10
2018-04-06T11:20:13.645Z,2.28
2018-04-06T11:21:16.941Z,2.45
2018-04-06T11:22:19.956Z,2.70
2018-04-06T11:23:23.038Z,1.95
2018-04-06T11:24:26.088Z,2.80
2018-04-06T11:25:30.236Z,2.67
2018-04-06T11:26:33.308Z,2.33
2018-04-06T11:27:36.374Z,2.10
2018-04-06T11:28:39.467Z,2.72
2018-04-06T11:29:42.565Z,1.80
2018-04-06T11:30:45.696Z,2.80
2018-04-06T11:31:48.747Z,2.30
2018-04-06T11:32:51.796Z,2.03
2018-04-06T11:33:54.904Z,2.15
2018-04-06T11:34:57.943Z,2.30
2018-04-06T11:36:00.974Z,2.55
2018-04-06T11:37:04.097Z,2.37
2018-04-06T11:38:07.199Z,2.00
2018-04-06T11:39:10.372Z,2.17
2018-04-06T11:40:13.471Z,2.03
2018-04-06T11:41:16.542Z,2.85
2018-04-06T11:42:19.819Z,2.10
2018-04-06T11:43:22.921Z,2.08
2018-04-06T11:44:26.024Z,2.45
2018-04-06T11:45:29.250Z,2.97
2018-04-06T11:46:33.804Z,2.78
2018-04-06T11:47:36.865Z,2.15
2018-04-06T11:48:42.269Z,2.25
2018-04-06T11:49:45.374Z,2.28
2018-04-06T11:50:48.469Z,2.47
2018-04-06T11:51:52.000Z,1.98
2018-04-06T11:52:55.048Z,2.08
2018-04-06T11:53:58.177Z,2.30
2018-04-06T11:55:02.384Z,2.55
2018-04-06T11:56:08.150Z,2.30
2018-04-06T11:57:11.320Z,2.22
2018-04-06T11:58:14.440Z,2.08
2018-04-06T11:59:17.524Z,2.37
2018-04-06T12:00:20.621Z,2.03
2018-04-06T12:01:23.728Z,2.60
2018-04-06T12:02:26.906Z,2.28
2018-04-06T12:03:30.090Z,2.30
2018-04-06T12:04:33.120Z,2.62
2018-04-06T12:05:36.192Z,1.90
2018-04-06T12:06:39.312Z,2.70
2018-04-06T12:07:42.368Z,2.08
2018-04-06T12:08:45.459Z,2.12
2018-04-06T12:09:48.520Z,2.25
2018-04-06T12:10:51.607Z,2.60
2018-04-06T12:11:55.001Z,1.90
2018-04-06T12:12:58.112Z,2.08
2018-04-06T12:14:01.163Z,2.08
2018-04-06T12:15:04.347Z,2.45
2018-04-06T12:16:07.393Z,2.35
2018-04-06T12:17:10.535Z,2.40
2018-04-06T12:18:13.686Z,2.30
2018-04-06T12:19:16.950Z,2.40
2018-04-06T12:20:20.495Z,2.22
2018-04-06T12:21:23.606Z,2.25
2018-04-06T12:22:26.643Z,2.80
2018-04-06T12:23:29.672Z,2.33
2018-04-06T12:24:32.800Z,2.10
2018-04-06T12:25:35.842Z,3.25
2018-04-06T12:26:38.983Z,2.05
2018-04-06T12:27:42.165Z,2.28
2018-04-06T12:28:45.301Z,2.50
2018-04-06T12:29:48.388Z,2.28
2018-04-06T12:30:51.435Z,2.35
2018-04-06T12:31:54.569Z,2.10
2018-04-06T12:32:57.649Z,3.30
2018-04-06T12:34:01.019Z,2.47
2018-04-06T12:35:04.465Z,2.30
2018-04-06T12:36:07.555Z,2.75
2018-04-06T12:37:11.259Z,2.15
2018-04-06T12:38:14.368Z,2.10
2018-04-06T12:39:17.549Z,2.60
2018-04-06T12:40:20.725Z,2.28
2018-04-06T12:41:23.975Z,2.45
2018-04-06T12:42:27.808Z,2.10
2018-04-06T12:43:30.918Z,2.70
2018-04-06T12:44:33.969Z,2.55
2018-04-06T12:45:37.224Z,1.98
2018-04-06T12:46:40.637Z,2.17
2018-04-06T12:47:43.841Z,2.60
2018-04-06T12:48:46.942Z,2.53
2018-04-06T12:49:49.991Z,2.28
2018-04-06T12:50:53.148Z,2.50
2018-04-06T12:51:56.283Z,2.55
2018-04-06T12:53:00.090Z,2.87
2018-04-06T12:54:03.409Z,2.33
2018-04-06T12:55:06.591Z,2.50
2018-04-06T12:56:09.737Z,2.10
2018-04-06T12:57:12.829Z,2.40
2018-04-06T12:58:15.912Z,1.90
2018-04-06T12:59:19.021Z,2.20
2018-04-06T13:00:22.162Z,2.37
2018-04-06T13:01:25.193Z,2.30
2018-04-06T13:02:28.659Z,3.00
2018-04-06T13:03:31.776Z,2.03
2018-04-06T13:04:34.809Z,1.95
2018-04-06T13:05:38.000Z,2.50
2018-04-06T13:06:41.087Z,2.60
2018-04-06T13:07:44.144Z,2.00
2018-04-06T13:08:47.201Z,2.60
2018-04-06T13:09:50.253Z,2.62
2018-04-06T13:10:53.387Z,2.83
2018-04-06T13:11:56.483Z,2.12
2018-04-06T13:12:59.603Z,2.37
2018-04-06T13:14:02.783Z,2.58
2018-04-06T13:15:05.885Z,2.37
2018-04-06T13:16:08.972Z,2.17
2018-04-06T13:17:12.040Z,2.37
2018-04-06T13:18:15.219Z,2.30
2018-04-06T13:19:18.390Z,3.03
2018-04-06T13:20:21.584Z,2.03
2018-04-06T13:21:24.665Z,2.47
2018-04-06T13:22:27.795Z,2.08
2018-04-06T13:23:30.953Z,2.75
2018-04-06T13:24:34.013Z,2.05
2018-04-06T13:25:37.055Z,2.10
2018-04-06T13:26:40.152Z,2.80
2018-04-06T13:27:43.324Z,2.08
2018-04-06T13:28:46.357Z,1.73
2018-04-06T13:29:49.602Z,2.40
2018-04-06T13:30:52.678Z,2.00
2018-04-06T13:31:56.841Z,2.40
2018-04-06T13:32:59.894Z,3.40
2018-04-06T13:34:03.079Z,2.00
2018-04-06T13:35:06.180Z,1.80
2018-04-06T13:36:09.260Z,2.50
2018-04-06T13:37:12.445Z,2.30
2018-04-06T13:38:15.712Z,3.03
2018-04-06T13:39:18.786Z,1.87
2018-04-06T13:40:21.915Z,2.20
2018-04-06T13:41:25.008Z,2.75
2018-04-06T13:42:28.076Z,2.40
2018-04-06T13:43:32.145Z,2.60
2018-04-06T13:44:35.703Z,2.55
2018-04-06T13:45:38.858Z,1.62
2018-04-06T13:46:41.993Z,2.00
2018-04-06T13:47:45.049Z,1.70
2018-04-06T13:48:48.088Z,2.10
2018-04-06T13:49:51.540Z,1.70
2018-04-06T13:50:55.606Z,2.20
2018-04-06T13:51:58.652Z,2.05
2018-04-06T13:53:01.826Z,2.20
2018-04-06T13:54:04.916Z,3.45
2018-04-06T13:55:08.076Z,2.17
2018-04-06T13:56:11.917Z,2.20
2018-04-06T13:57:15.015Z,1.92
2018-04-06T13:58:18.052Z,1.75
2018-04-06T13:59:21.185Z,2.33
2018-04-06T14:00:24.463Z,2.33
2018-04-06T14:01:27.581Z,2.47
2018-04-06T14:02:30.667Z,1.90
2018-04-06T14:03:34.073Z,2.05